Detall de PIREP

Printer-friendly versionPDF version

[2010/02/01 21:03:00]
Flight IATA:CT2110
Pilot Number:041
Company ICAO:CAT
Aircraft Type:F50/A
PAX:28
Departing Airport: LEVC
Destination Airport: LEST
Alternate Airport:LECO
Online: VATSIM
Route:CENTA2B A33 PRADO A33 CJN A33 HORTA A33 MAGIN A33 INDEG A33 DISKO A33 ZMR A33 FORNO1G


Flight Level:FL190
No Slew and time accel
No pause
Crash detect
Detect pilot in Cockpit between each 30 and 45 minutes
21:03 Zero fuel Weight: 35102 Lbs, Fuel Weight: 4929 Lbs
21:03 VATSIM:LEVC 012030Z 28003KT CAVOK 05/03 Q1024 NOSIG
21:03 VATSIM:LEST 012030Z 36006KT 340V040 CAVOK 05/03 Q1024 NOSIG
21:03 VOICE CATALONIAN
21:05 Parking Brakes off
21:14 Take-off
21:14 Take off Weight: 39901 Lbs
21:14 Wind: 283º @ 002 Knots Heading: 115º
21:14 POS N39º 29´ 11´´ W000º 28´ 28´´
21:14 Gear Up: 133 Knots
21:14 Flaps:1 at 133 Knots
21:16 Flaps:0 at 202 Knots
21:29 Wind:003º@018 Knots Headi
ng: 303º Ground Speed: 237 Knots Altitude 8307 ft
21:37 TOC
21:37 Fuel Weight: 3951 Lb
21:44 Wind:336º@034 Knots Heading: 303º Ground Speed: 230 Knots Altitude 19288 ft
21:59 Wind:330º@025 Knots Heading: 299º Ground Speed: 237 Knots Altitude 19271 ft
22:14 Wind:322º@023 Knots Heading: 298º Ground Speed: 238 Knots Altitude 19271 ft
22:29 Wind:313º@013 Knots Heading: 296º Ground Speed: 244 Knots Altitude 19274 ft
22:35 TOD
22:35 Fuel Weight: 2269 Lb
22:44 Wind:320º@013 Knots Heading: 305º Ground Speed: 234 Knots Altitude 11187 ft
22:59 Wind:075º@006 Knots Heading: 310º Ground Speed: 226 Knots Altitude 5997 ft
23:14 Wind:069º@004 Knots Heading: 164º Ground Speed: 205 Knots Altitude 4028 ft
23:17 Flaps:1 at 188 Knots
23:20 Flaps:2 at 181 Knots
23:21 Flaps:3 at 157 Knots
23:21 Gear Down: 146 Knots
23:21 Flaps:4 at 128 Knots
23:21 Flaps:6 at 112 Knots
23:23 TouchDo
wn:Rate -312 ft/min Speed: 92 Knots
23:23 VATSIM:LEST 012300Z 09004KT CAVOK 03/01 Q1023 NOSIG
23:23 Land
23:23 Wind:076º@004 Knots
23:23 Heading: 345º
23:23 Flight Duration: 02:09
23:23 Landing Weight: 36280 Lbs
23:23 POS N42º 53´ 27´´ W008º 24´ 48´´
23:26 Parking brakes on
23:26 Block to Block Duration: 02:21
23:26 Final Fuel: 1159 Lbls
23:26 Spent Fuel: 3769 Lbls
23:26 Flight Length: 478 NM
23:26 TOD Land Length: 170 NM

Exportar CSV

Powered by Drupal - Modified by Danger4k